Time;durP1;ratioP1;P1;durP2;ratioP2;P2;SDS_P1;SDS_P2;PMS_P1;PMS_P2;Temp;Humidity;BMP_temperature;BMP_pressure;BME280_temperature;BME280_humidity;BME280_pressure;Samples;Min_cycle;Max_cycle;Signal;HPM_P1;HPM_P2
2021/09/11 04:01:13;;;;;;;0.87;0.87;;;17.80;99.90;;;;;;5621972;23;20497;-74
2021/09/11 04:03:39;;;;;;;0.37;0.37;;;17.80;99.90;;;;;;4934053;29;20462;-73
2021/09/11 04:06:06;;;;;;;11.60;4.07;;;17.80;99.90;;;;;;4933946;29;20476;-74
2021/09/11 04:08:33;;;;;;;0.30;0.30;;;17.80;99.90;;;;;;4934967;29;20525;-74
2021/09/11 04:11:00;;;;;;;1.23;1.13;;;17.80;99.90;;;;;;4932942;29;21001;-74
2021/09/11 04:13:27;;;;;;;0.10;0.10;;;17.80;99.90;;;;;;4935063;29;20469;-74
2021/09/11 04:15:54;;;;;;;0.20;0.20;;;17.80;99.90;;;;;;4934625;29;20470;-73
2021/09/11 04:18:22;;;;;;;2.37;1.77;;;17.80;99.90;;;;;;4934277;29;20473;-74
2021/09/11 04:20:49;;;;;;;0.10;0.10;;;17.90;99.90;;;;;;4932623;29;20857;-73
2021/09/11 04:23:15;;;;;;;0.40;0.40;;;17.80;99.90;;;;;;4934454;29;20548;-74
2021/09/11 04:25:42;;;;;;;0.30;0.30;;;17.90;99.90;;;;;;4927725;29;20861;-74
2021/09/11 04:28:08;;;;;;;0.10;0.10;;;17.90;99.90;;;;;;4937760;28;20481;-74
2021/09/11 04:30:35;;;;;;;0.10;0.10;;;17.90;99.90;;;;;;4926779;29;20839;-74
2021/09/11 04:33:02;;;;;;;2.00;2.00;;;17.80;99.90;;;;;;4933169;29;20844;-74
2021/09/11 04:35:30;;;;;;;0.30;0.30;;;17.90;99.90;;;;;;4936704;29;20900;-75
2021/09/11 04:37:56;;;;;;;0.10;0.10;;;17.90;99.90;;;;;;4938151;29;20490;-75
2021/09/11 04:40:23;;;;;;;2.93;2.43;;;17.90;99.90;;;;;;4938276;29;20768;-75
2021/09/11 04:42:50;;;;;;;5.30;1.73;;;17.90;99.90;;;;;;4938282;29;20878;-75
2021/09/11 04:45:17;;;;;;;1.00;0.97;;;17.90;99.90;;;;;;4937122;29;20472;-75
2021/09/11 04:47:44;;;;;;;2.70;2.60;;;17.90;99.90;;;;;;4938224;29;20476;-73
2021/09/11 04:50:11;;;;;;;2.87;2.00;;;17.90;99.90;;;;;;4927607;29;20522;-73
2021/09/11 04:52:39;;;;;;;1.23;1.23;;;17.90;99.90;;;;;;4930492;28;21045;-73
2021/09/11 04:55:08;;;;;;;0.20;0.20;;;17.90;99.90;;;;;;4934003;29;20982;-74
2021/09/11 04:57:35;;;;;;;0.40;0.40;;;17.90;99.90;;;;;;4930890;29;20770;-73
2021/09/11 05:00:01;;;;;;;0.70;0.67;;;17.90;99.90;;;;;;4937134;29;20484;-73
2021/09/11 05:02:28;;;;;;;1.40;1.40;;;17.90;99.90;;;;;;4918666;29;20498;-73
2021/09/11 05:04:55;;;;;;;0.97;0.73;;;17.90;99.90;;;;;;4932145;29;20492;-75
2021/09/11 05:07:22;;;;;;;0.20;0.20;;;18.00;99.90;;;;;;4936818;28;20840;-75
2021/09/11 05:09:50;;;;;;;0.10;0.10;;;17.90;99.90;;;;;;4937303;29;20462;-73
2021/09/11 05:12:16;;;;;;;3.00;3.00;;;18.00;99.90;;;;;;4925079;29;21260;-73
2021/09/11 05:14:43;;;;;;;0.10;0.10;;;18.00;99.90;;;;;;4923232;29;20465;-74
2021/09/11 05:17:10;;;;;;;0.97;0.97;;;18.00;99.90;;;;;;4937677;29;20473;-74
2021/09/11 05:19:36;;;;;;;11.33;1.20;;;18.00;99.90;;;;;;4924948;29;22129;-74
2021/09/11 05:22:03;;;;;;;0.60;0.60;;;18.00;99.90;;;;;;4936262;29;20488;-76
2021/09/11 05:24:30;;;;;;;0.43;0.43;;;18.00;99.90;;;;;;4931030;29;20521;-74
2021/09/11 05:26:58;;;;;;;0.10;0.10;;;18.00;99.90;;;;;;4937158;29;20521;-74
2021/09/11 05:29:25;;;;;;;2.30;0.63;;;18.10;99.90;;;;;;4937056;29;20524;-74
2021/09/11 05:32:00;;;;;;;1.03;1.03;;;18.10;99.90;;;;;;4936616;29;20485;-74
2021/09/11 05:34:27;;;;;;;0.57;0.57;;;18.10;99.90;;;;;;4925762;29;20517;-73
2021/09/11 05:36:53;;;;;;;0.67;0.67;;;18.00;99.90;;;;;;4917528;29;20522;-73
2021/09/11 05:39:20;;;;;;;0.37;0.37;;;18.10;99.90;;;;;;4930116;29;20466;-74
2021/09/11 05:41:47;;;;;;;0.10;0.10;;;18.00;99.90;;;;;;4934396;29;20490;-74
2021/09/11 05:44:14;;;;;;;0.43;0.43;;;18.10;99.90;;;;;;4935511;29;20462;-74
2021/09/11 05:46:41;;;;;;;3.07;2.97;;;18.10;99.90;;;;;;4918054;29;20927;-74
2021/09/11 05:49:08;;;;;;;1.30;1.30;;;18.10;99.90;;;;;;4925444;29;20547;-74
2021/09/11 05:51:34;;;;;;;0.20;0.20;;;18.10;99.90;;;;;;4936934;29;20846;-73
2021/09/11 05:54:01;;;;;;;0.10;0.10;;;18.10;99.90;;;;;;4935450;29;20513;-74
2021/09/11 05:56:28;;;;;;;0.70;0.70;;;18.20;99.90;;;;;;4936945;29;20842;-73
2021/09/11 05:58:54;;;;;;;0.20;0.20;;;18.20;99.90;;;;;;4936308;29;20612;-74
2021/09/11 06:01:22;;;;;;;0.80;0.80;;;18.20;99.90;;;;;;4935022;29;20489;-74
2021/09/11 06:03:49;;;;;;;1.53;1.53;;;18.30;99.90;;;;;;4935029;29;20545;-75
2021/09/11 06:06:16;;;;;;;1.07;1.07;;;18.30;99.90;;;;;;4935910;29;20521;-75
2021/09/11 06:08:42;;;;;;;0.53;0.40;;;18.30;99.90;;;;;;4934694;29;20465;-75
2021/09/11 06:11:09;;;;;;;1.20;0.87;;;18.30;99.90;;;;;;4925970;29;20478;-75
2021/09/11 06:13:36;;;;;;;0.20;0.20;;;18.40;99.90;;;;;;4935364;29;20486;-75
2021/09/11 06:16:05;;;;;;;0.10;0.10;;;18.40;99.90;;;;;;4936615;29;20469;-77
2021/09/11 06:18:33;;;;;;;0.20;0.20;;;18.50;99.90;;;;;;4935603;29;20902;-76
2021/09/11 06:21:00;;;;;;;0.37;0.37;;;18.50;99.90;;;;;;4941875;28;20504;-76
2021/09/11 06:23:28;;;;;;;0.10;0.10;;;18.50;99.90;;;;;;4937066;29;20470;-77
2021/09/11 06:25:54;;;;;;;0.93;0.93;;;18.60;99.90;;;;;;4936674;29;20467;-76
2021/09/11 06:28:24;;;;;;;3.40;2.63;;;18.60;99.90;;;;;;4934370;29;20540;-76
2021/09/11 06:30:50;;;;;;;0.10;0.10;;;18.60;99.90;;;;;;4936175;29;20872;-76
2021/09/11 06:33:17;;;;;;;0.40;0.40;;;18.70;99.90;;;;;;4935796;29;20493;-76
2021/09/11 06:35:45;;;;;;;0.10;0.10;;;18.70;99.90;;;;;;4923701;29;20474;-76
2021/09/11 06:38:12;;;;;;;0.17;0.17;;;18.70;99.90;;;;;;4936322;29;20477;-77
2021/09/11 06:40:39;;;;;;;0.40;0.40;;;18.80;99.90;;;;;;4923197;29;21022;-77
2021/09/11 06:43:05;;;;;;;0.57;0.57;;;18.80;99.90;;;;;;4936264;29;20461;-77
2021/09/11 06:45:32;;;;;;;0.47;0.47;;;18.80;99.90;;;;;;4935605;29;20524;-77
2021/09/11 06:47:59;;;;;;;0.20;0.20;;;18.90;99.90;;;;;;4934421;29;20465;-77
2021/09/11 06:50:26;;;;;;;1.80;1.80;;;18.90;99.90;;;;;;4928593;29;20945;-77
2021/09/11 06:52:54;;;;;;;1.70;0.93;;;19.00;99.90;;;;;;4933628;29;20541;-76
2021/09/11 06:55:21;;;;;;;1.47;1.47;;;19.00;99.90;;;;;;4935432;29;20473;-78
2021/09/11 06:57:47;;;;;;;0.33;0.33;;;19.10;99.90;;;;;;4935745;29;20517;-76
2021/09/11 07:00:14;;;;;;;0.67;0.67;;;19.10;99.90;;;;;;4936069;29;20465;-75
2021/09/11 07:02:41;;;;;;;0.67;0.67;;;19.10;99.90;;;;;;4935784;29;20540;-78
2021/09/11 07:05:08;;;;;;;0.20;0.20;;;19.10;99.90;;;;;;4935691;29;20478;-77
2021/09/11 07:07:35;;;;;;;0.10;0.10;;;19.10;99.90;;;;;;4936336;28;20910;-77
2021/09/11 07:10:06;;;;;;;0.30;0.30;;;19.10;99.90;;;;;;4923528;29;20475;-77
2021/09/11 07:12:32;;;;;;;0.93;0.87;;;19.10;99.90;;;;;;4917191;29;20498;-78
2021/09/11 07:15:01;;;;;;;0.70;0.70;;;19.20;99.90;;;;;;4917125;29;20948;-75
2021/09/11 07:17:28;;;;;;;0.10;0.10;;;19.20;99.90;;;;;;4916710;29;20869;-76
2021/09/11 07:19:55;;;;;;;0.10;0.10;;;19.30;99.90;;;;;;4915369;29;20979;-76
2021/09/11 07:22:21;;;;;;;0.53;0.53;;;19.30;99.90;;;;;;4933955;29;21014;-76
2021/09/11 07:24:48;;;;;;;4.90;1.20;;;19.30;99.90;;;;;;4935805;29;20543;-76
2021/09/11 07:27:17;;;;;;;0.30;0.30;;;19.50;99.90;;;;;;4935517;29;20473;-76
2021/09/11 07:29:44;;;;;;;0.10;0.10;;;19.70;99.90;;;;;;4935307;29;20479;-75
2021/09/11 07:32:10;;;;;;;1.43;1.33;;;19.80;99.90;;;;;;4934428;29;20493;-76
2021/09/11 07:34:37;;;;;;;0.97;0.97;;;20.10;99.90;;;;;;4934964;29;20465;-76
2021/09/11 07:37:04;;;;;;;1.27;1.23;;;20.30;99.90;;;;;;4931931;29;20470;-76
2021/09/11 07:39:31;;;;;;;0.10;0.10;;;20.50;99.90;;;;;;4935590;29;20473;-76
2021/09/11 07:41:57;;;;;;;0.20;0.20;;;20.60;99.90;;;;;;4930551;29;20494;-76
2021/09/11 07:44:25;;;;;;;0.10;0.10;;;20.70;99.90;;;;;;4925873;29;20561;-76
2021/09/11 07:46:52;;;;;;;0.10;0.10;;;20.80;99.90;;;;;;4935021;29;20512;-76
2021/09/11 07:49:19;;;;;;;0.10;0.10;;;20.70;99.90;;;;;;4933764;29;20461;-76
2021/09/11 07:51:45;;;;;;;0.90;0.67;;;20.70;99.90;;;;;;4932375;29;20492;-76
2021/09/11 07:54:12;;;;;;;2.43;1.50;;;20.60;99.90;;;;;;4933371;29;20516;-75
2021/09/11 07:56:39;;;;;;;0.30;0.30;;;20.60;99.90;;;;;;4935032;29;20537;-75
2021/09/11 07:59:05;;;;;;;0.53;0.33;;;20.50;99.90;;;;;;4934637;29;20536;-75
2021/09/11 08:01:33;;;;;;;0.10;0.10;;;20.60;99.90;;;;;;4938712;29;20489;-76
2021/09/11 08:04:00;;;;;;;0.10;0.10;;;20.50;99.90;;;;;;4936923;29;20474;-75
2021/09/11 08:06:27;;;;;;;0.20;0.20;;;20.60;99.90;;;;;;4916533;29;20836;-75
2021/09/11 08:08:55;;;;;;;0.10;0.10;;;20.60;99.90;;;;;;4924017;29;20450;-75
2021/09/11 08:11:21;;;;;;;0.30;0.30;;;20.60;99.90;;;;;;4934708;29;20496;-75
2021/09/11 08:13:48;;;;;;;0.20;0.20;;;20.60;99.90;;;;;;4932150;29;20490;-73
2021/09/11 08:16:15;;;;;;;0.10;0.10;;;20.70;99.90;;;;;;4923454;28;20462;-73
2021/09/11 08:18:43;;;;;;;0.20;0.20;;;20.60;99.90;;;;;;4935526;29;20458;-73
2021/09/11 08:21:09;;;;;;;0.83;0.60;;;20.60;99.90;;;;;;4921505;29;20513;-73
2021/09/11 08:23:36;;;;;;;0.10;0.10;;;20.60;99.90;;;;;;4934020;29;20458;-73
2021/09/11 08:26:04;;;;;;;0.20;0.20;;;20.60;99.90;;;;;;4938999;29;20515;-73
2021/09/11 08:28:31;;;;;;;1.70;1.70;;;20.40;99.90;;;;;;4949829;29;20946;-73
2021/09/11 08:30:57;;;;;;;0.40;0.40;;;20.30;99.90;;;;;;4920846;29;20485;-74
2021/09/11 08:33:24;;;;;;;4.93;1.80;;;20.30;99.90;;;;;;4940090;29;20492;-73
2021/09/11 08:35:52;;;;;;;2.20;1.80;;;20.30;99.90;;;;;;4924521;29;20465;-72
2021/09/11 08:38:19;;;;;;;1.17;1.17;;;20.30;99.90;;;;;;4933517;29;20925;-73
2021/09/11 08:40:46;;;;;;;1.00;1.00;;;20.30;99.90;;;;;;4918756;29;20976;-73
2021/09/11 08:43:16;;;;;;;0.27;0.27;;;20.30;99.90;;;;;;4930992;29;20459;-73
2021/09/11 08:45:43;;;;;;;0.97;0.93;;;20.20;99.90;;;;;;4933859;29;20494;-73
2021/09/11 08:48:09;;;;;;;0.13;0.13;;;20.10;99.90;;;;;;4933201;29;20925;-73
2021/09/11 08:50:36;;;;;;;0.20;0.20;;;20.10;99.90;;;;;;4933688;29;20552;-72
2021/09/11 08:53:04;;;;;;;1.13;1.13;;;20.10;99.90;;;;;;4926986;29;20905;-73
2021/09/11 08:55:31;;;;;;;0.20;0.20;;;20.10;99.90;;;;;;4928787;29;20774;-72
2021/09/11 08:58:00;;;;;;;0.97;0.97;;;20.10;99.90;;;;;;4927989;29;20544;-72
2021/09/11 09:00:39;;;;;;;1.03;1.03;;;20.10;99.90;;;;;;4928224;29;20470;-71
2021/09/11 09:03:26;;;;;;;0.20;0.20;;;20.30;99.90;;;;;;4928496;29;20465;-72
2021/09/11 09:05:53;;;;;;;1.33;1.23;;;20.50;99.90;;;;;;4929018;29;20470;-72
2021/09/11 09:08:28;;;;;;;3.07;3.03;;;20.70;99.90;;;;;;4916589;29;20459;-72
2021/09/11 09:10:55;;;;;;;0.30;0.30;;;20.80;99.90;;;;;;4916877;29;20482;-72
2021/09/11 09:13:22;;;;;;;0.20;0.20;;;20.80;99.90;;;;;;4931135;29;20485;-71
2021/09/11 09:15:49;;;;;;;1.37;0.93;;;20.80;99.90;;;;;;4935258;29;20950;-72
2021/09/11 09:18:16;;;;;;;0.10;0.10;;;20.70;99.90;;;;;;4921479;29;20470;-71
2021/09/11 09:20:43;;;;;;;0.10;0.10;;;20.70;99.90;;;;;;4926373;29;20882;-71
2021/09/11 09:23:16;;;;;;;0.20;0.20;;;20.70;99.90;;;;;;4932901;29;20548;-72
2021/09/11 09:25:45;;;;;;;1.63;1.63;;;20.70;99.90;;;;;;4935914;29;20533;-73
2021/09/11 09:28:14;;;;;;;0.10;0.10;;;20.60;99.90;;;;;;4935745;29;20493;-73
2021/09/11 09:30:43;;;;;;;0.10;0.10;;;20.50;99.90;;;;;;4936191;29;20548;-76
2021/09/11 09:33:21;;;;;;;1.20;1.20;;;20.40;99.90;;;;;;4929513;29;20502;-73
2021/09/11 09:35:49;;;;;;;3.30;2.17;;;20.40;99.90;;;;;;4926232;29;20477;-73
2021/09/11 09:38:15;;;;;;;0.30;0.30;;;20.30;99.90;;;;;;4934272;29;20470;-72
2021/09/11 09:40:46;;;;;;;0.17;0.17;;;20.30;99.90;;;;;;4926585;29;20892;-73
2021/09/11 09:43:27;;;;;;;1.30;1.13;;;20.20;99.90;;;;;;4931002;29;20466;-72
2021/09/11 09:46:03;;;;;;;0.70;0.70;;;20.20;99.90;;;;;;4932102;29;20577;-71
2021/09/11 09:48:30;;;;;;;1.63;1.53;;;20.10;99.90;;;;;;4930877;29;20484;-72
2021/09/11 09:51:03;;;;;;;0.80;0.50;;;20.10;99.90;;;;;;4935838;29;20496;-72
2021/09/11 09:53:29;;;;;;;0.20;0.20;;;20.10;99.90;;;;;;4936068;29;20545;-73
2021/09/11 09:55:58;;;;;;;0.77;0.70;;;20.10;99.90;;;;;;4930336;29;20462;-74
2021/09/11 09:58:25;;;;;;;0.70;0.70;;;20.00;99.90;;;;;;4936318;29;20474;-73
2021/09/11 10:00:52;;;;;;;1.70;1.27;;;20.00;99.90;;;;;;4924948;29;20509;-73
2021/09/11 10:03:19;;;;;;;0.30;0.30;;;20.10;99.90;;;;;;4935191;29;20466;-72
2021/09/11 10:05:50;;;;;;;0.10;0.10;;;20.20;99.90;;;;;;4935537;29;20540;-71
2021/09/11 10:08:19;;;;;;;0.67;0.67;;;20.30;99.90;;;;;;4936609;29;20520;-70
2021/09/11 10:10:48;;;;;;;1.40;1.40;;;20.30;99.90;;;;;;4934792;29;20501;-70
2021/09/11 10:13:17;;;;;;;0.60;0.40;;;20.30;99.90;;;;;;4934220;29;20521;-71
2021/09/11 10:15:56;;;;;;;1.50;1.50;;;20.40;99.90;;;;;;4933678;29;20470;-71
2021/09/11 10:18:42;;;;;;;0.60;0.60;;;20.30;99.90;;;;;;4935266;29;20462;-71
2021/09/11 10:21:18;;;;;;;0.10;0.10;;;20.30;99.90;;;;;;4916921;29;20498;-71
2021/09/11 10:24:25;;;;;;;0.97;0.97;;;20.30;99.90;;;;;;4918015;29;20470;-70
2021/09/11 10:26:53;;;;;;;0.10;0.10;;;20.40;99.90;;;;;;4917146;29;20809;-71
2021/09/11 10:29:50;;;;;;;0.50;0.50;;;20.50;99.90;;;;;;4922244;29;20579;-71
2021/09/11 10:32:29;;;;;;;1.47;1.47;;;20.70;99.90;;;;;;4935507;28;21203;-71
2021/09/11 10:35:00;;;;;;;0.70;0.70;;;20.90;99.90;;;;;;4935922;29;20493;-71
2021/09/11 10:37:33;;;;;;;0.40;0.40;;;21.00;99.90;;;;;;4946464;29;20465;-71
2021/09/11 10:40:31;;;;;;;2.60;2.50;;;21.10;99.90;;;;;;4947511;29;20473;-71
2021/09/11 10:43:28;;;;;;;0.83;0.83;;;21.30;99.90;;;;;;4940346;29;20569;-71
2021/09/11 10:46:06;;;;;;;1.03;1.03;;;21.60;99.90;;;;;;4933494;29;20871;-71
2021/09/11 10:48:40;;;;;;;19.73;15.67;;;21.90;99.90;;;;;;4935146;29;20532;-70
2021/09/11 10:51:18;;;;;;;15.73;14.13;;;22.10;99.90;;;;;;4935265;29;20517;-70
2021/09/11 10:54:09;;;;;;;15.10;13.47;;;22.20;99.90;;;;;;4925695;29;20490;-70
2021/09/11 10:56:39;;;;;;;14.50;13.03;;;22.10;99.90;;;;;;4921604;29;20472;-70
2021/09/11 10:59:39;;;;;;;14.33;12.97;;;22.10;99.90;;;;;;4934572;29;20524;-70
2021/09/11 11:02:24;;;;;;;14.93;13.63;;;22.20;99.90;;;;;;4934418;29;20907;-70
2021/09/11 11:04:56;;;;;;;14.33;13.03;;;22.30;99.90;;;;;;4934254;29;20454;-72
2021/09/11 11:07:25;;;;;;;14.73;13.27;;;22.30;99.90;;;;;;4934306;28;20473;-72
2021/09/11 11:09:53;;;;;;;14.70;13.20;;;22.30;99.90;;;;;;4923700;29;20597;-72
2021/09/11 11:12:22;;;;;;;13.63;12.50;;;22.30;99.90;;;;;;4922154;29;20493;-72
2021/09/11 11:14:48;;;;;;;13.53;12.23;;;22.30;99.90;;;;;;4935107;29;21069;-72
2021/09/11 11:17:18;;;;;;;13.53;12.33;;;22.50;99.90;;;;;;4935007;29;20536;-73
2021/09/11 11:19:49;;;;;;;12.40;11.30;;;22.60;99.90;;;;;;4934614;29;20470;-73
2021/09/11 11:22:17;;;;;;;13.17;12.00;;;22.70;99.90;;;;;;4929981;29;20545;-73
2021/09/11 11:24:46;;;;;;;14.87;13.53;;;22.70;99.90;;;;;;4915943;29;20494;-73
2021/09/11 11:27:14;;;;;;;13.80;12.70;;;22.60;99.90;;;;;;4915002;29;20462;-73
2021/09/11 11:29:43;;;;;;;13.00;11.90;;;22.60;99.90;;;;;;4916076;29;20533;-73
2021/09/11 11:32:09;;;;;;;10.70;9.90;;;22.70;99.90;;;;;;4919424;29;20549;-73
2021/09/11 11:34:38;;;;;;;9.47;8.77;;;22.70;99.90;;;;;;4933075;29;20493;-73
2021/09/11 11:37:08;;;;;;;9.97;9.17;;;22.70;99.90;;;;;;4933880;29;20473;-73
2021/09/11 11:39:36;;;;;;;8.80;8.10;;;22.80;99.90;;;;;;4919846;29;22228;-73
2021/09/11 11:42:06;;;;;;;8.50;7.90;;;22.80;99.90;;;;;;4930756;29;20480;-73
2021/09/11 11:44:36;;;;;;;7.43;7.03;;;22.70;99.90;;;;;;4928975;29;20602;-74
2021/09/11 11:47:08;;;;;;;8.90;8.30;;;22.60;99.90;;;;;;4929519;29;20838;-73
2021/09/11 11:49:37;;;;;;;8.90;8.20;;;22.60;99.90;;;;;;4934102;29;20461;-73
2021/09/11 11:52:07;;;;;;;9.60;8.90;;;22.50;99.90;;;;;;4930889;29;20484;-71
2021/09/11 11:54:36;;;;;;;8.93;8.30;;;22.50;99.90;;;;;;4933992;29;20552;-71
2021/09/11 11:57:11;;;;;;;9.63;8.93;;;22.50;99.90;;;;;;4926481;29;20466;-71
2021/09/11 11:59:38;;;;;;;8.60;8.10;;;22.30;99.90;;;;;;4933606;29;20476;-70
2021/09/11 12:02:18;;;;;;;9.70;9.10;;;22.20;99.90;;;;;;4932121;29;20596;-71
2021/09/11 12:04:45;;;;;;;10.33;9.37;;;22.10;99.90;;;;;;4913054;29;20557;-70
2021/09/11 12:07:26;;;;;;;10.17;9.33;;;22.00;99.90;;;;;;4926576;29;20457;-71
2021/09/11 12:09:53;;;;;;;9.40;8.70;;;21.90;99.90;;;;;;4934174;29;20547;-71
2021/09/11 12:12:20;;;;;;;9.23;8.63;;;21.90;99.90;;;;;;4933789;28;21027;-70
2021/09/11 12:14:47;;;;;;;7.07;6.57;;;22.00;99.90;;;;;;4934081;29;20497;-71
2021/09/11 12:17:15;;;;;;;6.57;6.17;;;22.00;99.90;;;;;;4934113;29;20465;-71
2021/09/11 12:19:41;;;;;;;7.47;6.97;;;22.10;99.90;;;;;;4933915;29;21071;-71
2021/09/11 12:22:18;;;;;;;6.63;6.23;;;22.30;99.90;;;;;;4933785;29;20495;-71
2021/09/11 12:24:45;;;;;;;6.70;6.40;;;22.30;99.90;;;;;;4933867;29;20621;-71
2021/09/11 12:27:13;;;;;;;5.30;5.10;;;22.40;99.90;;;;;;4934351;29;20469;-71
2021/09/11 12:29:40;;;;;;;6.70;6.10;;;22.40;99.90;;;;;;4934317;29;20548;-71
2021/09/11 12:32:07;;;;;;;6.63;6.13;;;22.40;99.90;;;;;;4921384;29;20561;-71
2021/09/11 12:34:44;;;;;;;7.30;6.80;;;22.50;99.90;;;;;;4914819;29;20614;-71
2021/09/11 12:37:11;;;;;;;6.67;5.80;;;22.40;99.90;;;;;;4914982;29;20533;-70
2021/09/11 12:39:41;;;;;;;5.70;5.40;;;22.30;99.90;;;;;;4931055;29;20478;-71
2021/09/11 12:42:11;;;;;;;6.03;5.60;;;22.30;99.90;;;;;;4920688;29;20499;-71
2021/09/11 12:44:39;;;;;;;6.22;5.82;;;22.30;99.90;;;;;;4934331;29;20536;-71
2021/09/11 12:47:07;;;;;;;6.30;5.97;;;22.30;99.90;;;;;;4937735;29;20209;-71
2021/09/11 12:49:37;;;;;;;5.93;5.63;;;22.30;99.90;;;;;;4937524;29;20478;-70
2021/09/11 12:52:04;;;;;;;5.90;5.60;;;22.30;99.90;;;;;;4937012;29;20544;-71
2021/09/11 12:54:30;;;;;;;5.80;5.53;;;22.40;99.90;;;;;;4937801;29;20505;-71
2021/09/11 12:56:58;;;;;;;6.50;6.00;;;22.40;99.90;;;;;;4937785;29;20473;-71
2021/09/11 12:59:25;;;;;;;5.30;5.10;;;22.50;99.90;;;;;;4937571;29;20465;-71
2021/09/11 13:01:52;;;;;;;6.57;6.17;;;22.50;99.90;;;;;;4936997;29;20497;-71
2021/09/11 13:04:21;;;;;;;5.93;5.63;;;22.50;99.90;;;;;;4936652;29;20467;-71
2021/09/11 13:06:48;;;;;;;5.30;5.00;;;22.50;99.90;;;;;;4938553;29;20469;-71
2021/09/11 13:09:16;;;;;;;5.30;5.00;;;22.60;99.90;;;;;;4938803;28;20477;-71
2021/09/11 13:11:44;;;;;;;4.73;4.53;;;22.60;99.90;;;;;;4936984;29;20860;-71
2021/09/11 13:14:12;;;;;;;5.10;4.70;;;22.60;99.90;;;;;;4936943;29;20541;-70
2021/09/11 13:16:40;;;;;;;5.20;5.00;;;22.70;99.90;;;;;;4936856;29;20806;-71
2021/09/11 13:19:07;;;;;;;5.20;5.00;;;22.70;99.90;;;;;;4936929;29;20515;-70
2021/09/11 13:21:36;;;;;;;5.17;4.87;;;22.70;99.90;;;;;;4936717;29;20965;-71
2021/09/11 13:24:03;;;;;;;5.50;5.10;;;22.60;99.90;;;;;;4936992;29;20491;-71
2021/09/11 13:26:31;;;;;;;4.70;4.50;;;22.50;99.90;;;;;;4936895;29;20492;-70
2021/09/11 13:28:59;;;;;;;4.77;4.23;;;22.60;99.90;;;;;;4937187;29;20819;-70
2021/09/11 13:31:27;;;;;;;5.53;5.13;;;22.60;99.90;;;;;;4937107;29;20675;-70
2021/09/11 13:33:54;;;;;;;4.27;4.17;;;22.50;99.90;;;;;;4936548;29;21034;-70
2021/09/11 13:36:23;;;;;;;4.50;4.30;;;22.40;99.90;;;;;;4923822;29;20983;-70
2021/09/11 13:38:50;;;;;;;3.80;3.70;;;22.40;99.90;;;;;;4917944;29;20470;-70
2021/09/11 13:41:19;;;;;;;4.23;4.07;;;22.50;99.90;;;;;;4917921;29;20857;-70
2021/09/11 13:43:46;;;;;;;3.97;3.87;;;22.40;99.90;;;;;;4923184;29;20528;-70
2021/09/11 13:46:14;;;;;;;4.10;4.00;;;22.20;99.90;;;;;;4937111;28;20478;-70
2021/09/11 13:48:44;;;;;;;6.03;5.73;;;22.00;99.90;;;;;;4936808;29;20473;-70
2021/09/11 13:51:12;;;;;;;4.90;4.70;;;21.90;99.90;;;;;;4936278;29;20492;-70
2021/09/11 13:53:38;;;;;;;4.67;4.27;;;21.90;99.90;;;;;;4936184;29;20462;-70
2021/09/11 13:56:05;;;;;;;5.07;4.87;;;21.90;99.90;;;;;;4935946;29;20532;-70
2021/09/11 13:58:32;;;;;;;5.57;4.43;;;21.90;99.90;;;;;;4932440;29;20474;-70
2021/09/11 14:00:58;;;;;;;4.93;4.73;;;21.90;99.90;;;;;;4946402;28;20509;-70
2021/09/11 14:03:25;;;;;;;4.60;4.50;;;22.00;99.90;;;;;;4935834;29;20883;-70
2021/09/11 14:05:53;;;;;;;4.40;4.30;;;22.30;99.90;;;;;;4936153;29;20466;-70
2021/09/11 14:08:20;;;;;;;4.83;4.53;;;22.10;99.90;;;;;;4936199;29;20540;-70
2021/09/11 14:10:47;;;;;;;4.60;4.40;;;22.20;99.90;;;;;;4936261;29;20512;-70
2021/09/11 14:13:14;;;;;;;4.93;4.57;;;22.30;99.90;;;;;;4936183;29;20466;-70
2021/09/11 14:15:40;;;;;;;4.33;4.10;;;22.30;99.90;;;;;;4936276;29;20734;-70
2021/09/11 14:18:07;;;;;;;4.77;4.57;;;22.20;99.90;;;;;;4935628;29;20584;-70
2021/09/11 14:20:34;;;;;;;5.13;4.90;;;22.20;99.90;;;;;;4935814;29;20564;-70
2021/09/11 14:23:02;;;;;;;5.10;4.80;;;22.10;99.90;;;;;;4935834;29;20470;-70
2021/09/11 14:25:29;;;;;;;4.80;4.50;;;22.10;99.90;;;;;;4936084;29;20995;-70
2021/09/11 14:27:55;;;;;;;5.10;4.90;;;21.90;99.90;;;;;;4935848;29;20838;-70
2021/09/11 14:30:23;;;;;;;4.77;4.67;;;21.90;99.90;;;;;;4936004;29;20888;-70
2021/09/11 14:32:49;;;;;;;5.00;4.80;;;21.90;99.90;;;;;;4917551;29;20466;-70
2021/09/11 14:35:16;;;;;;;4.80;4.50;;;21.90;99.90;;;;;;4920851;29;20537;-70
2021/09/11 14:37:43;;;;;;;4.93;4.73;;;22.00;99.90;;;;;;4916851;29;20561;-70
2021/09/11 14:40:12;;;;;;;5.23;5.03;;;22.10;99.90;;;;;;4916869;29;20502;-70
2021/09/11 14:42:41;;;;;;;5.30;4.87;;;22.10;99.90;;;;;;4916792;29;20470;-70
2021/09/11 14:45:09;;;;;;;5.07;4.87;;;22.10;99.90;;;;;;4916835;29;20463;-70
2021/09/11 14:47:37;;;;;;;5.93;5.63;;;22.00;99.90;;;;;;4916564;29;20514;-70
2021/09/11 14:50:05;;;;;;;5.30;4.90;;;21.90;99.90;;;;;;4915671;29;21050;-70
2021/09/11 14:52:31;;;;;;;5.80;5.50;;;21.90;99.90;;;;;;4927422;29;20490;-70
2021/09/11 14:54:58;;;;;;;5.27;4.97;;;21.90;99.90;;;;;;4934651;29;20497;-70
2021/09/11 14:57:27;;;;;;;5.70;5.47;;;21.90;99.90;;;;;;4935042;28;20540;-69
2021/09/11 14:59:53;;;;;;;6.30;5.73;;;22.00;99.90;;;;;;4935135;29;20527;-70
2021/09/11 15:02:21;;;;;;;6.57;5.40;;;22.00;99.90;;;;;;4934324;29;20497;-69
2021/09/11 15:04:47;;;;;;;5.50;5.20;;;22.00;99.90;;;;;;4932628;29;20496;-69
2021/09/11 15:07:15;;;;;;;5.77;5.37;;;22.00;99.90;;;;;;4935445;29;20811;-72
2021/09/11 15:09:42;;;;;;;5.80;5.50;;;22.10;99.90;;;;;;4934218;29;20473;-70
2021/09/11 15:12:09;;;;;;;5.43;5.17;;;22.10;99.90;;;;;;4935092;29;20493;-72
2021/09/11 15:14:37;;;;;;;8.17;6.40;;;22.10;99.90;;;;;;4935280;29;20485;-70
2021/09/11 15:17:04;;;;;;;6.33;5.90;;;22.20;99.90;;;;;;4935079;29;20740;-71
2021/09/11 15:19:31;;;;;;;6.30;5.77;;;22.20;99.90;;;;;;4934378;29;20548;-71
2021/09/11 15:21:57;;;;;;;6.87;6.33;;;22.20;99.90;;;;;;4934229;29;20768;-72
2021/09/11 15:24:24;;;;;;;5.93;5.63;;;22.20;99.90;;;;;;4927389;29;20473;-71
2021/09/11 15:26:50;;;;;;;6.20;5.80;;;22.20;99.90;;;;;;4934698;29;20528;-71
2021/09/11 15:29:17;;;;;;;6.00;5.70;;;22.30;99.90;;;;;;4934788;29;20466;-71
2021/09/11 15:31:45;;;;;;;6.90;6.40;;;22.20;99.90;;;;;;4930993;29;20489;-71
2021/09/11 15:34:12;;;;;;;6.60;6.20;;;22.10;99.90;;;;;;4934681;29;20934;-72
2021/09/11 15:36:38;;;;;;;7.03;6.50;;;22.20;99.90;;;;;;4932455;29;20577;-71
2021/09/11 15:39:05;;;;;;;7.47;6.90;;;22.20;99.90;;;;;;4933471;29;20470;-71
2021/09/11 15:41:32;;;;;;;6.73;6.30;;;22.10;99.90;;;;;;4934507;29;20540;-71
2021/09/11 15:43:59;;;;;;;6.53;6.10;;;22.00;99.90;;;;;;4933317;29;20485;-74
2021/09/11 15:46:26;;;;;;;6.70;6.30;;;21.90;99.90;;;;;;4934890;29;20524;-72
2021/09/11 15:48:54;;;;;;;6.40;6.10;;;21.80;99.90;;;;;;4934231;29;20497;-72
2021/09/11 15:51:20;;;;;;;7.33;6.77;;;21.70;99.90;;;;;;4922483;29;20490;-72
2021/09/11 15:53:47;;;;;;;8.23;6.93;;;21.50;99.90;;;;;;4934398;29;20466;-72
2021/09/11 15:56:14;;;;;;;6.57;6.07;;;21.40;99.90;;;;;;4934061;29;20867;-71
2021/09/11 15:58:41;;;;;;;7.60;7.07;;;21.40;99.90;;;;;;4924764;29;20474;-71
2021/09/11 16:01:08;;;;;;;6.70;6.20;;;21.30;99.90;;;;;;4920696;29;20541;-73
2021/09/11 16:03:34;;;;;;;6.73;6.30;;;21.30;99.90;;;;;;4933343;29;20548;-71
2021/09/11 16:06:02;;;;;;;7.17;6.67;;;21.30;99.90;;;;;;4933760;29;20462;-72
2021/09/11 16:08:29;;;;;;;7.00;6.50;;;21.30;99.90;;;;;;4930284;29;20474;-71
2021/09/11 16:10:56;;;;;;;8.00;7.40;;;21.30;99.90;;;;;;4932060;29;20489;-71
2021/09/11 16:13:23;;;;;;;10.53;7.20;;;21.30;99.90;;;;;;4934025;29;20458;-72
2021/09/11 16:15:50;;;;;;;6.97;6.47;;;21.20;99.90;;;;;;4934131;29;20508;-73
2021/09/11 16:18:17;;;;;;;7.30;6.80;;;21.20;99.90;;;;;;4933702;29;20549;-73
2021/09/11 16:20:44;;;;;;;7.43;6.93;;;21.10;99.90;;;;;;4934083;29;20966;-73
2021/09/11 16:23:13;;;;;;;7.70;7.30;;;21.10;99.90;;;;;;4934682;29;20536;-74
2021/09/11 16:25:40;;;;;;;7.97;7.50;;;21.10;99.90;;;;;;4935151;29;20549;-71
2021/09/11 16:28:07;;;;;;;6.60;6.30;;;21.10;99.90;;;;;;4936472;29;20469;-71
2021/09/11 16:30:34;;;;;;;8.90;7.23;;;21.10;99.90;;;;;;4935253;29;20576;-71
2021/09/11 16:33:01;;;;;;;7.57;7.07;;;21.10;99.90;;;;;;4937114;29;21044;-72
2021/09/11 16:35:28;;;;;;;7.83;6.80;;;21.00;99.90;;;;;;4930685;29;20482;-70
2021/09/11 16:37:55;;;;;;;7.27;6.87;;;21.00;99.90;;;;;;4917732;29;20497;-71
2021/09/11 16:40:23;;;;;;;7.93;7.40;;;21.00;99.90;;;;;;4934432;29;20473;-73
2021/09/11 16:42:50;;;;;;;6.90;6.50;;;20.90;99.90;;;;;;4930897;29;20528;-73
2021/09/11 16:45:16;;;;;;;12.90;11.80;;;20.90;99.90;;;;;;4933982;29;20490;-72
2021/09/11 16:47:43;;;;;;;11.07;10.07;;;20.90;99.90;;;;;;4934146;29;20490;-71
2021/09/11 16:50:10;;;;;;;9.70;9.00;;;20.90;99.90;;;;;;4932806;29;20465;-71
2021/09/11 16:52:37;;;;;;;7.80;7.20;;;20.90;99.90;;;;;;4930244;29;20457;-70